sensor_id;sensor_type;location;lat;lon;timestamp;temperature;humidity
19363;DHT22;9817;50.80926400;5.16316200;2023-11-19T00:00:11;14.20;99.90
19363;DHT22;9817;50.80926400;5.16316200;2023-11-19T00:02:40;14.10;99.90
19363;DHT22;9817;50.80926400;5.16316200;2023-11-19T00:05:06;14.10;99.90
19363;DHT22;9817;50.80926400;5.16316200;2023-11-19T00:07:37;14.20;99.90
19363;DHT22;9817;50.80926400;5.16316200;2023-11-19T00:10:10;14.10;99.90
19363;DHT22;9817;50.80926400;5.16316200;2023-11-19T00:12:43;14.20;99.90
19363;DHT22;9817;50.80926400;5.16316200;2023-11-19T00:15:13;14.10;99.90
19363;DHT22;9817;50.80926400;5.16316200;2023-11-19T00:17:41;14.10;99.90
19363;DHT22;9817;50.80926400;5.16316200;2023-11-19T00:20:11;14.20;99.90
19363;DHT22;9817;50.80926400;5.16316200;2023-11-19T00:22:37;14.20;99.90
19363;DHT22;9817;50.80926400;5.16316200;2023-11-19T00:25:03;14.20;99.90
19363;DHT22;9817;50.80926400;5.16316200;2023-11-19T00:27:29;14.20;99.90
19363;DHT22;9817;50.80926400;5.16316200;2023-11-19T00:29:55;14.20;99.90
19363;DHT22;9817;50.80926400;5.16316200;2023-11-19T00:32:22;14.20;99.90
19363;DHT22;9817;50.80926400;5.16316200;2023-11-19T00:34:48;14.20;99.90
19363;DHT22;9817;50.80926400;5.16316200;2023-11-19T00:37:14;14.10;99.90
19363;DHT22;9817;50.80926400;5.16316200;2023-11-19T00:39:43;14.30;99.90
19363;DHT22;9817;50.80926400;5.16316200;2023-11-19T00:42:09;14.30;99.90
19363;DHT22;9817;50.80926400;5.16316200;2023-11-19T00:44:38;14.30;99.90
19363;DHT22;9817;50.80926400;5.16316200;2023-11-19T00:47:04;14.40;99.90
19363;DHT22;9817;50.80926400;5.16316200;2023-11-19T00:49:30;14.40;99.90
19363;DHT22;9817;50.80926400;5.16316200;2023-11-19T00:51:58;14.50;99.90
19363;DHT22;9817;50.80926400;5.16316200;2023-11-19T00:54:24;14.50;99.90
19363;DHT22;9817;50.80926400;5.16316200;2023-11-19T00:56:51;14.50;99.90
19363;DHT22;9817;50.80926400;5.16316200;2023-11-19T00:59:18;14.40;99.90
19363;DHT22;9817;50.80926400;5.16316200;2023-11-19T01:01:43;14.30;99.90
19363;DHT22;9817;50.80926400;5.16316200;2023-11-19T01:04:09;14.30;99.90
19363;DHT22;9817;50.80926400;5.16316200;2023-11-19T01:06:35;14.40;99.90
19363;DHT22;9817;50.80926400;5.16316200;2023-11-19T01:09:00;14.50;99.90
19363;DHT22;9817;50.80926400;5.16316200;2023-11-19T01:11:26;14.50;99.90
19363;DHT22;9817;50.80926400;5.16316200;2023-11-19T01:13:52;14.50;99.90
19363;DHT22;9817;50.80926400;5.16316200;2023-11-19T01:16:18;14.40;99.90
19363;DHT22;9817;50.80926400;5.16316200;2023-11-19T01:18:44;14.40;99.90
19363;DHT22;9817;50.80926400;5.16316200;2023-11-19T01:21:10;14.60;99.90
19363;DHT22;9817;50.80926400;5.16316200;2023-11-19T01:23:36;14.60;99.90
19363;DHT22;9817;50.80926400;5.16316200;2023-11-19T01:26:02;14.60;99.90
19363;DHT22;9817;50.80926400;5.16316200;2023-11-19T01:28:28;14.50;99.90
19363;DHT22;9817;50.80926400;5.16316200;2023-11-19T01:30:54;14.60;99.90
19363;DHT22;9817;50.80926400;5.16316200;2023-11-19T01:33:19;14.50;99.90
19363;DHT22;9817;50.80926400;5.16316200;2023-11-19T01:35:45;14.40;99.90
19363;DHT22;9817;50.80926400;5.16316200;2023-11-19T01:38:11;14.50;99.90
19363;DHT22;9817;50.80926400;5.16316200;2023-11-19T01:40:37;14.50;99.90
19363;DHT22;9817;50.80926400;5.16316200;2023-11-19T01:43:03;14.50;99.90
19363;DHT22;9817;50.80926400;5.16316200;2023-11-19T01:45:30;14.50;99.90
19363;DHT22;9817;50.80926400;5.16316200;2023-11-19T01:47:57;14.60;99.90
19363;DHT22;9817;50.80926400;5.16316200;2023-11-19T01:50:24;14.60;99.90
19363;DHT22;9817;50.80926400;5.16316200;2023-11-19T01:52:54;14.60;99.90
19363;DHT22;9817;50.80926400;5.16316200;2023-11-19T01:55:21;14.50;99.90
19363;DHT22;9817;50.80926400;5.16316200;2023-11-19T01:57:48;14.40;99.90
19363;DHT22;9817;50.80926400;5.16316200;2023-11-19T02:00:16;14.40;99.90
19363;DHT22;9817;50.80926400;5.16316200;2023-11-19T02:02:43;14.40;99.90
19363;DHT22;9817;50.80926400;5.16316200;2023-11-19T02:05:11;14.40;99.90
19363;DHT22;9817;50.80926400;5.16316200;2023-11-19T02:07:37;14.50;99.90
19363;DHT22;9817;50.80926400;5.16316200;2023-11-19T02:10:02;14.50;99.90
19363;DHT22;9817;50.80926400;5.16316200;2023-11-19T02:12:31;14.60;99.90
19363;DHT22;9817;50.80926400;5.16316200;2023-11-19T02:14:59;14.70;99.90
19363;DHT22;9817;50.80926400;5.16316200;2023-11-19T02:17:29;14.70;99.90
19363;DHT22;9817;50.80926400;5.16316200;2023-11-19T02:19:59;14.70;99.90
19363;DHT22;9817;50.80926400;5.16316200;2023-11-19T02:22:25;14.60;99.90
19363;DHT22;9817;50.80926400;5.16316200;2023-11-19T02:24:57;14.50;99.90
19363;DHT22;9817;50.80926400;5.16316200;2023-11-19T02:29:57;14.50;99.90
19363;DHT22;9817;50.80926400;5.16316200;2023-11-19T02:32:23;14.40;99.90
19363;DHT22;9817;50.80926400;5.16316200;2023-11-19T02:34:49;14.40;99.90
19363;DHT22;9817;50.80926400;5.16316200;2023-11-19T02:37:14;14.30;99.90
19363;DHT22;9817;50.80926400;5.16316200;2023-11-19T02:39:40;14.20;99.90
19363;DHT22;9817;50.80926400;5.16316200;2023-11-19T02:42:07;14.20;99.90
19363;DHT22;9817;50.80926400;5.16316200;2023-11-19T02:44:33;14.10;99.90
19363;DHT22;9817;50.80926400;5.16316200;2023-11-19T02:46:59;14.00;99.90
19363;DHT22;9817;50.80926400;5.16316200;2023-11-19T02:49:25;14.00;99.90
19363;DHT22;9817;50.80926400;5.16316200;2023-11-19T02:51:51;14.10;99.90
19363;DHT22;9817;50.80926400;5.16316200;2023-11-19T02:54:16;14.10;99.90
19363;DHT22;9817;50.80926400;5.16316200;2023-11-19T02:56:44;14.00;99.90
19363;DHT22;9817;50.80926400;5.16316200;2023-11-19T02:59:13;13.90;99.90
19363;DHT22;9817;50.80926400;5.16316200;2023-11-19T03:01:52;13.90;99.90
19363;DHT22;9817;50.80926400;5.16316200;2023-11-19T03:04:19;14.00;99.90
19363;DHT22;9817;50.80926400;5.16316200;2023-11-19T03:06:46;13.90;99.90
19363;DHT22;9817;50.80926400;5.16316200;2023-11-19T03:09:12;13.90;99.90
19363;DHT22;9817;50.80926400;5.16316200;2023-11-19T03:11:37;13.90;99.90
19363;DHT22;9817;50.80926400;5.16316200;2023-11-19T03:14:04;13.90;99.90
19363;DHT22;9817;50.80926400;5.16316200;2023-11-19T03:16:30;13.90;99.90
19363;DHT22;9817;50.80926400;5.16316200;2023-11-19T03:18:55;13.80;99.90
19363;DHT22;9817;50.80926400;5.16316200;2023-11-19T03:21:29;13.80;99.90
19363;DHT22;9817;50.80926400;5.16316200;2023-11-19T03:23:54;13.80;99.90
19363;DHT22;9817;50.80926400;5.16316200;2023-11-19T03:26:21;13.80;99.90
19363;DHT22;9817;50.80926400;5.16316200;2023-11-19T03:28:47;13.80;99.90
19363;DHT22;9817;50.80926400;5.16316200;2023-11-19T03:31:13;13.80;99.90
19363;DHT22;9817;50.80926400;5.16316200;2023-11-19T03:33:39;13.80;99.90
19363;DHT22;9817;50.80926400;5.16316200;2023-11-19T03:36:05;13.70;99.90
19363;DHT22;9817;50.80926400;5.16316200;2023-11-19T03:38:31;13.70;99.90
19363;DHT22;9817;50.80926400;5.16316200;2023-11-19T03:40:57;13.80;99.90
19363;DHT22;9817;50.80926400;5.16316200;2023-11-19T03:43:22;13.70;99.90
19363;DHT22;9817;50.80926400;5.16316200;2023-11-19T03:45:48;13.60;99.90
19363;DHT22;9817;50.80926400;5.16316200;2023-11-19T03:48:14;13.60;99.90
19363;DHT22;9817;50.80926400;5.16316200;2023-11-19T03:50:41;13.50;99.90
19363;DHT22;9817;50.80926400;5.16316200;2023-11-19T03:53:07;13.40;99.90
19363;DHT22;9817;50.80926400;5.16316200;2023-11-19T03:55:33;13.30;99.90
19363;DHT22;9817;50.80926400;5.16316200;2023-11-19T03:57:58;13.20;99.90
19363;DHT22;9817;50.80926400;5.16316200;2023-11-19T04:00:24;13.30;99.90
19363;DHT22;9817;50.80926400;5.16316200;2023-11-19T04:02:49;13.30;99.90
19363;DHT22;9817;50.80926400;5.16316200;2023-11-19T04:05:15;13.30;99.90
19363;DHT22;9817;50.80926400;5.16316200;2023-11-19T04:07:41;13.40;99.90
19363;DHT22;9817;50.80926400;5.16316200;2023-11-19T04:10:07;13.30;99.90
19363;DHT22;9817;50.80926400;5.16316200;2023-11-19T04:12:32;13.20;99.90
19363;DHT22;9817;50.80926400;5.16316200;2023-11-19T04:14:58;13.20;99.90
19363;DHT22;9817;50.80926400;5.16316200;2023-11-19T04:17:23;13.10;99.90
19363;DHT22;9817;50.80926400;5.16316200;2023-11-19T04:19:49;13.10;99.90
19363;DHT22;9817;50.80926400;5.16316200;2023-11-19T04:22:15;13.20;99.90
19363;DHT22;9817;50.80926400;5.16316200;2023-11-19T04:24:40;13.10;99.90
19363;DHT22;9817;50.80926400;5.16316200;2023-11-19T04:27:06;13.10;99.90
19363;DHT22;9817;50.80926400;5.16316200;2023-11-19T04:29:32;13.10;99.90
19363;DHT22;9817;50.80926400;5.16316200;2023-11-19T04:31:58;13.00;99.90
19363;DHT22;9817;50.80926400;5.16316200;2023-11-19T04:34:24;13.10;99.90
19363;DHT22;9817;50.80926400;5.16316200;2023-11-19T04:36:50;13.10;99.90
19363;DHT22;9817;50.80926400;5.16316200;2023-11-19T04:39:15;13.10;99.90
19363;DHT22;9817;50.80926400;5.16316200;2023-11-19T04:41:48;13.10;99.90
19363;DHT22;9817;50.80926400;5.16316200;2023-11-19T04:44:20;13.20;99.90
19363;DHT22;9817;50.80926400;5.16316200;2023-11-19T04:46:46;13.20;99.90
19363;DHT22;9817;50.80926400;5.16316200;2023-11-19T04:49:12;13.20;99.90
19363;DHT22;9817;50.80926400;5.16316200;2023-11-19T04:51:44;13.30;99.90
19363;DHT22;9817;50.80926400;5.16316200;2023-11-19T04:54:12;13.30;99.90
19363;DHT22;9817;50.80926400;5.16316200;2023-11-19T04:56:38;13.30;99.90
19363;DHT22;9817;50.80926400;5.16316200;2023-11-19T04:59:04;13.30;99.90
19363;DHT22;9817;50.80926400;5.16316200;2023-11-19T05:01:34;13.40;99.90
19363;DHT22;9817;50.80926400;5.16316200;2023-11-19T05:04:00;13.50;99.90
19363;DHT22;9817;50.80926400;5.16316200;2023-11-19T05:06:28;13.60;99.90
19363;DHT22;9817;50.80926400;5.16316200;2023-11-19T05:08:55;13.60;99.90
19363;DHT22;9817;50.80926400;5.16316200;2023-11-19T05:11:21;13.50;99.90
19363;DHT22;9817;50.80926400;5.16316200;2023-11-19T05:13:46;13.40;99.90
19363;DHT22;9817;50.80926400;5.16316200;2023-11-19T05:16:12;13.30;99.90
19363;DHT22;9817;50.80926400;5.16316200;2023-11-19T05:18:40;13.30;99.90
19363;DHT22;9817;50.80926400;5.16316200;2023-11-19T05:21:06;13.20;99.90
19363;DHT22;9817;50.80926400;5.16316200;2023-11-19T05:23:32;13.30;99.90
19363;DHT22;9817;50.80926400;5.16316200;2023-11-19T05:26:00;13.30;99.90
19363;DHT22;9817;50.80926400;5.16316200;2023-11-19T05:28:25;13.30;99.90
19363;DHT22;9817;50.80926400;5.16316200;2023-11-19T05:30:51;13.40;99.90
19363;DHT22;9817;50.80926400;5.16316200;2023-11-19T05:33:17;13.40;99.90
19363;DHT22;9817;50.80926400;5.16316200;2023-11-19T05:35:42;13.40;99.90
19363;DHT22;9817;50.80926400;5.16316200;2023-11-19T05:38:08;13.30;99.90
19363;DHT22;9817;50.80926400;5.16316200;2023-11-19T05:40:35;13.20;99.90
19363;DHT22;9817;50.80926400;5.16316200;2023-11-19T05:43:01;13.10;99.90
19363;DHT22;9817;50.80926400;5.16316200;2023-11-19T05:45:26;13.20;99.90
19363;DHT22;9817;50.80926400;5.16316200;2023-11-19T05:47:52;13.10;99.90
19363;DHT22;9817;50.80926400;5.16316200;2023-11-19T05:50:18;13.10;99.90
19363;DHT22;9817;50.80926400;5.16316200;2023-11-19T05:52:44;13.10;99.90
19363;DHT22;9817;50.80926400;5.16316200;2023-11-19T05:55:09;13.10;99.90
19363;DHT22;9817;50.80926400;5.16316200;2023-11-19T05:57:37;13.00;99.90
19363;DHT22;9817;50.80926400;5.16316200;2023-11-19T06:00:03;12.90;99.90
19363;DHT22;9817;50.80926400;5.16316200;2023-11-19T06:02:32;12.90;99.90
19363;DHT22;9817;50.80926400;5.16316200;2023-11-19T06:04:58;12.80;99.90
19363;DHT22;9817;50.80926400;5.16316200;2023-11-19T06:07:23;12.90;99.90
19363;DHT22;9817;50.80926400;5.16316200;2023-11-19T06:09:50;12.70;99.90
19363;DHT22;9817;50.80926400;5.16316200;2023-11-19T06:12:16;12.70;99.90
19363;DHT22;9817;50.80926400;5.16316200;2023-11-19T06:14:41;12.70;99.90
19363;DHT22;9817;50.80926400;5.16316200;2023-11-19T06:17:07;12.70;99.90
19363;DHT22;9817;50.80926400;5.16316200;2023-11-19T06:19:33;12.80;99.90
19363;DHT22;9817;50.80926400;5.16316200;2023-11-19T06:21:59;12.80;99.90
19363;DHT22;9817;50.80926400;5.16316200;2023-11-19T06:24:25;12.90;99.90
19363;DHT22;9817;50.80926400;5.16316200;2023-11-19T06:26:50;13.00;99.90
19363;DHT22;9817;50.80926400;5.16316200;2023-11-19T06:29:16;12.90;99.90
19363;DHT22;9817;50.80926400;5.16316200;2023-11-19T06:31:45;12.80;99.90
19363;DHT22;9817;50.80926400;5.16316200;2023-11-19T06:34:11;12.70;99.90
19363;DHT22;9817;50.80926400;5.16316200;2023-11-19T06:36:36;12.70;99.90
19363;DHT22;9817;50.80926400;5.16316200;2023-11-19T06:39:02;12.70;99.90
19363;DHT22;9817;50.80926400;5.16316200;2023-11-19T06:41:27;12.60;99.90
19363;DHT22;9817;50.80926400;5.16316200;2023-11-19T06:43:54;12.60;99.90
19363;DHT22;9817;50.80926400;5.16316200;2023-11-19T06:46:20;12.70;99.90
19363;DHT22;9817;50.80926400;5.16316200;2023-11-19T06:48:46;12.60;99.90
19363;DHT22;9817;50.80926400;5.16316200;2023-11-19T06:51:12;12.60;99.90
19363;DHT22;9817;50.80926400;5.16316200;2023-11-19T06:53:38;12.60;99.90
19363;DHT22;9817;50.80926400;5.16316200;2023-11-19T06:56:06;12.60;99.90
19363;DHT22;9817;50.80926400;5.16316200;2023-11-19T06:58:36;12.60;99.90
19363;DHT22;9817;50.80926400;5.16316200;2023-11-19T07:01:01;12.50;99.90
19363;DHT22;9817;50.80926400;5.16316200;2023-11-19T07:03:27;12.60;99.90
19363;DHT22;9817;50.80926400;5.16316200;2023-11-19T07:05:53;12.50;99.90
19363;DHT22;9817;50.80926400;5.16316200;2023-11-19T07:08:18;12.60;99.90
19363;DHT22;9817;50.80926400;5.16316200;2023-11-19T07:10:44;12.70;99.90
19363;DHT22;9817;50.80926400;5.16316200;2023-11-19T07:13:09;12.60;99.90
19363;DHT22;9817;50.80926400;5.16316200;2023-11-19T07:15:35;12.50;99.90
19363;DHT22;9817;50.80926400;5.16316200;2023-11-19T07:18:00;12.50;99.90
19363;DHT22;9817;50.80926400;5.16316200;2023-11-19T07:20:26;12.50;99.90
19363;DHT22;9817;50.80926400;5.16316200;2023-11-19T07:22:52;12.30;99.90
19363;DHT22;9817;50.80926400;5.16316200;2023-11-19T07:25:18;12.40;99.90
19363;DHT22;9817;50.80926400;5.16316200;2023-11-19T07:27:43;12.40;99.90
19363;DHT22;9817;50.80926400;5.16316200;2023-11-19T07:30:09;12.40;99.90
19363;DHT22;9817;50.80926400;5.16316200;2023-11-19T07:32:35;12.40;99.90
19363;DHT22;9817;50.80926400;5.16316200;2023-11-19T07:35:01;12.50;99.90
19363;DHT22;9817;50.80926400;5.16316200;2023-11-19T07:37:27;12.40;99.90
19363;DHT22;9817;50.80926400;5.16316200;2023-11-19T07:39:52;12.50;99.90
19363;DHT22;9817;50.80926400;5.16316200;2023-11-19T07:42:18;12.40;99.90
19363;DHT22;9817;50.80926400;5.16316200;2023-11-19T07:44:43;12.60;99.90
19363;DHT22;9817;50.80926400;5.16316200;2023-11-19T07:47:09;12.50;99.90
19363;DHT22;9817;50.80926400;5.16316200;2023-11-19T07:49:35;12.40;99.90
19363;DHT22;9817;50.80926400;5.16316200;2023-11-19T07:52:01;12.50;99.90
19363;DHT22;9817;50.80926400;5.16316200;2023-11-19T07:54:28;12.60;99.90
19363;DHT22;9817;50.80926400;5.16316200;2023-11-19T07:56:54;12.60;99.90
19363;DHT22;9817;50.80926400;5.16316200;2023-11-19T07:59:19;12.60;99.90
19363;DHT22;9817;50.80926400;5.16316200;2023-11-19T08:01:45;12.70;99.90
19363;DHT22;9817;50.80926400;5.16316200;2023-11-19T08:04:11;12.70;99.90
19363;DHT22;9817;50.80926400;5.16316200;2023-11-19T08:06:36;12.80;99.90
19363;DHT22;9817;50.80926400;5.16316200;2023-11-19T08:09:02;12.90;99.90
19363;DHT22;9817;50.80926400;5.16316200;2023-11-19T08:11:28;12.80;99.90
19363;DHT22;9817;50.80926400;5.16316200;2023-11-19T08:13:53;12.80;99.90
19363;DHT22;9817;50.80926400;5.16316200;2023-11-19T08:16:19;12.80;99.90
19363;DHT22;9817;50.80926400;5.16316200;2023-11-19T08:18:44;12.90;99.90
19363;DHT22;9817;50.80926400;5.16316200;2023-11-19T08:21:10;12.80;99.90
19363;DHT22;9817;50.80926400;5.16316200;2023-11-19T08:23:36;12.80;99.90
19363;DHT22;9817;50.80926400;5.16316200;2023-11-19T08:26:02;12.80;99.90
19363;DHT22;9817;50.80926400;5.16316200;2023-11-19T08:28:28;13.00;99.90
19363;DHT22;9817;50.80926400;5.16316200;2023-11-19T08:30:54;13.00;99.90
19363;DHT22;9817;50.80926400;5.16316200;2023-11-19T08:33:19;13.10;99.90
19363;DHT22;9817;50.80926400;5.16316200;2023-11-19T08:35:48;13.20;99.90
19363;DHT22;9817;50.80926400;5.16316200;2023-11-19T08:38:13;13.10;99.90
19363;DHT22;9817;50.80926400;5.16316200;2023-11-19T08:40:39;13.10;99.90
19363;DHT22;9817;50.80926400;5.16316200;2023-11-19T08:43:05;13.20;99.90
19363;DHT22;9817;50.80926400;5.16316200;2023-11-19T08:45:31;13.30;99.90
19363;DHT22;9817;50.80926400;5.16316200;2023-11-19T08:47:57;13.40;99.90
19363;DHT22;9817;50.80926400;5.16316200;2023-11-19T08:50:23;13.30;99.90
19363;DHT22;9817;50.80926400;5.16316200;2023-11-19T08:52:49;13.20;99.90
19363;DHT22;9817;50.80926400;5.16316200;2023-11-19T08:55:14;13.30;99.90
19363;DHT22;9817;50.80926400;5.16316200;2023-11-19T08:57:40;13.30;99.90
19363;DHT22;9817;50.80926400;5.16316200;2023-11-19T09:00:06;13.30;99.90
19363;DHT22;9817;50.80926400;5.16316200;2023-11-19T09:02:35;13.30;99.90
19363;DHT22;9817;50.80926400;5.16316200;2023-11-19T09:05:02;13.40;99.90
19363;DHT22;9817;50.80926400;5.16316200;2023-11-19T09:07:28;13.40;99.90
19363;DHT22;9817;50.80926400;5.16316200;2023-11-19T09:09:54;13.50;99.90
19363;DHT22;9817;50.80926400;5.16316200;2023-11-19T09:12:19;13.50;99.90
19363;DHT22;9817;50.80926400;5.16316200;2023-11-19T09:14:45;13.60;99.90
19363;DHT22;9817;50.80926400;5.16316200;2023-11-19T09:17:11;13.70;99.90
19363;DHT22;9817;50.80926400;5.16316200;2023-11-19T09:19:37;13.90;99.90
19363;DHT22;9817;50.80926400;5.16316200;2023-11-19T09:22:02;14.00;99.90
19363;DHT22;9817;50.80926400;5.16316200;2023-11-19T09:24:29;14.00;99.90
19363;DHT22;9817;50.80926400;5.16316200;2023-11-19T09:26:54;14.00;99.90
19363;DHT22;9817;50.80926400;5.16316200;2023-11-19T09:29:21;14.00;99.90
19363;DHT22;9817;50.80926400;5.16316200;2023-11-19T09:31:47;13.90;99.90
19363;DHT22;9817;50.80926400;5.16316200;2023-11-19T09:34:13;13.90;99.90
19363;DHT22;9817;50.80926400;5.16316200;2023-11-19T09:36:38;13.90;99.90
19363;DHT22;9817;50.80926400;5.16316200;2023-11-19T09:39:11;13.80;99.90
19363;DHT22;9817;50.80926400;5.16316200;2023-11-19T09:41:40;13.80;99.90
19363;DHT22;9817;50.80926400;5.16316200;2023-11-19T09:44:06;14.10;99.90
19363;DHT22;9817;50.80926400;5.16316200;2023-11-19T09:46:32;14.20;99.90
19363;DHT22;9817;50.80926400;5.16316200;2023-11-19T09:48:59;14.10;99.90
19363;DHT22;9817;50.80926400;5.16316200;2023-11-19T09:51:25;14.00;99.90
19363;DHT22;9817;50.80926400;5.16316200;2023-11-19T09:53:51;14.10;99.90
19363;DHT22;9817;50.80926400;5.16316200;2023-11-19T09:56:17;14.10;99.90
19363;DHT22;9817;50.80926400;5.16316200;2023-11-19T09:58:43;14.10;99.90
19363;DHT22;9817;50.80926400;5.16316200;2023-11-19T10:01:09;14.00;99.90
19363;DHT22;9817;50.80926400;5.16316200;2023-11-19T10:03:39;14.00;99.90
19363;DHT22;9817;50.80926400;5.16316200;2023-11-19T10:06:09;13.90;99.90
19363;DHT22;9817;50.80926400;5.16316200;2023-11-19T10:08:39;13.80;99.90
19363;DHT22;9817;50.80926400;5.16316200;2023-11-19T10:11:06;13.80;99.90
19363;DHT22;9817;50.80926400;5.16316200;2023-11-19T10:13:37;13.80;99.90
19363;DHT22;9817;50.80926400;5.16316200;2023-11-19T10:16:15;13.90;99.90
19363;DHT22;9817;50.80926400;5.16316200;2023-11-19T10:18:48;14.20;99.90
19363;DHT22;9817;50.80926400;5.16316200;2023-11-19T10:21:17;14.10;99.90
19363;DHT22;9817;50.80926400;5.16316200;2023-11-19T10:23:51;14.00;99.90
19363;DHT22;9817;50.80926400;5.16316200;2023-11-19T10:26:18;14.00;99.90
19363;DHT22;9817;50.80926400;5.16316200;2023-11-19T10:28:46;13.80;99.90
19363;DHT22;9817;50.80926400;5.16316200;2023-11-19T10:31:16;13.70;99.90
19363;DHT22;9817;50.80926400;5.16316200;2023-11-19T10:33:42;13.80;99.90
19363;DHT22;9817;50.80926400;5.16316200;2023-11-19T10:36:10;13.90;99.90
19363;DHT22;9817;50.80926400;5.16316200;2023-11-19T10:38:38;14.10;99.90
19363;DHT22;9817;50.80926400;5.16316200;2023-11-19T10:41:04;14.10;99.90
19363;DHT22;9817;50.80926400;5.16316200;2023-11-19T10:43:31;14.10;99.90
19363;DHT22;9817;50.80926400;5.16316200;2023-11-19T10:46:13;14.20;99.90
19363;DHT22;9817;50.80926400;5.16316200;2023-11-19T10:48:40;14.40;99.90
19363;DHT22;9817;50.80926400;5.16316200;2023-11-19T10:51:07;14.40;99.90
19363;DHT22;9817;50.80926400;5.16316200;2023-11-19T10:53:37;14.50;99.90
19363;DHT22;9817;50.80926400;5.16316200;2023-11-19T10:56:05;14.40;99.90
19363;DHT22;9817;50.80926400;5.16316200;2023-11-19T10:58:35;14.50;99.90
19363;DHT22;9817;50.80926400;5.16316200;2023-11-19T11:01:09;14.70;99.90
19363;DHT22;9817;50.80926400;5.16316200;2023-11-19T11:03:39;14.80;99.90
19363;DHT22;9817;50.80926400;5.16316200;2023-11-19T11:06:06;15.00;99.90
19363;DHT22;9817;50.80926400;5.16316200;2023-11-19T11:08:32;15.00;99.90
19363;DHT22;9817;50.80926400;5.16316200;2023-11-19T11:11:02;15.00;99.90
19363;DHT22;9817;50.80926400;5.16316200;2023-11-19T11:13:30;15.10;99.90
19363;DHT22;9817;50.80926400;5.16316200;2023-11-19T11:15:57;15.00;99.90
19363;DHT22;9817;50.80926400;5.16316200;2023-11-19T11:18:24;15.00;99.90
19363;DHT22;9817;50.80926400;5.16316200;2023-11-19T11:21:00;15.00;99.90
19363;DHT22;9817;50.80926400;5.16316200;2023-11-19T11:29:26;15.10;99.90
19363;DHT22;9817;50.80926400;5.16316200;2023-11-19T11:37:46;15.50;99.90
19363;DHT22;9817;50.80926400;5.16316200;2023-11-19T11:40:16;15.60;99.90
19363;DHT22;9817;50.80926400;5.16316200;2023-11-19T11:42:44;15.60;99.90
19363;DHT22;9817;50.80926400;5.16316200;2023-11-19T11:45:14;15.60;99.90
19363;DHT22;9817;50.80926400;5.16316200;2023-11-19T11:50:16;15.70;99.90
19363;DHT22;9817;50.80926400;5.16316200;2023-11-19T11:55:35;15.90;99.90
19363;DHT22;9817;50.80926400;5.16316200;2023-11-19T11:58:05;15.60;99.90
19363;DHT22;9817;50.80926400;5.16316200;2023-11-19T12:00:38;15.40;99.90
19363;DHT22;9817;50.80926400;5.16316200;2023-11-19T12:03:06;15.30;99.90
19363;DHT22;9817;50.80926400;5.16316200;2023-11-19T12:05:41;15.30;99.90
19363;DHT22;9817;50.80926400;5.16316200;2023-11-19T12:08:11;15.40;99.90
19363;DHT22;9817;50.80926400;5.16316200;2023-11-19T12:10:44;15.40;99.90
19363;DHT22;9817;50.80926400;5.16316200;2023-11-19T12:13:10;15.30;99.90
19363;DHT22;9817;50.80926400;5.16316200;2023-11-19T12:18:32;15.30;99.90
19363;DHT22;9817;50.80926400;5.16316200;2023-11-19T12:20:59;15.10;99.90
19363;DHT22;9817;50.80926400;5.16316200;2023-11-19T12:23:27;15.10;99.90
19363;DHT22;9817;50.80926400;5.16316200;2023-11-19T12:25:54;15.20;99.90
19363;DHT22;9817;50.80926400;5.16316200;2023-11-19T12:28:20;15.30;99.90
19363;DHT22;9817;50.80926400;5.16316200;2023-11-19T12:30:46;15.30;99.90
19363;DHT22;9817;50.80926400;5.16316200;2023-11-19T12:33:15;15.30;99.90
19363;DHT22;9817;50.80926400;5.16316200;2023-11-19T12:35:43;15.40;99.90
19363;DHT22;9817;50.80926400;5.16316200;2023-11-19T12:38:25;15.30;99.90
19363;DHT22;9817;50.80926400;5.16316200;2023-11-19T12:41:04;15.40;99.90
19363;DHT22;9817;50.80926400;5.16316200;2023-11-19T12:43:30;15.40;99.90
19363;DHT22;9817;50.80926400;5.16316200;2023-11-19T12:45:56;15.30;99.90
19363;DHT22;9817;50.80926400;5.16316200;2023-11-19T12:48:22;15.40;99.90
19363;DHT22;9817;50.80926400;5.16316200;2023-11-19T12:50:55;15.60;99.90
19363;DHT22;9817;50.80926400;5.16316200;2023-11-19T12:53:22;15.70;99.90
19363;DHT22;9817;50.80926400;5.16316200;2023-11-19T12:55:48;15.70;99.90
19363;DHT22;9817;50.80926400;5.16316200;2023-11-19T12:58:34;15.70;99.90
19363;DHT22;9817;50.80926400;5.16316200;2023-11-19T13:01:05;15.50;99.90
19363;DHT22;9817;50.80926400;5.16316200;2023-11-19T13:06:05;15.10;99.90
19363;DHT22;9817;50.80926400;5.16316200;2023-11-19T13:08:49;14.90;99.90
19363;DHT22;9817;50.80926400;5.16316200;2023-11-19T13:11:30;14.80;99.90
19363;DHT22;9817;50.80926400;5.16316200;2023-11-19T13:14:04;14.60;99.90
19363;DHT22;9817;50.80926400;5.16316200;2023-11-19T13:16:30;14.60;99.90
19363;DHT22;9817;50.80926400;5.16316200;2023-11-19T13:18:56;14.60;99.90
19363;DHT22;9817;50.80926400;5.16316200;2023-11-19T13:21:23;14.60;99.90
19363;DHT22;9817;50.80926400;5.16316200;2023-11-19T13:23:48;14.60;99.90
19363;DHT22;9817;50.80926400;5.16316200;2023-11-19T13:26:15;14.60;99.90
19363;DHT22;9817;50.80926400;5.16316200;2023-11-19T13:28:41;14.50;99.90
19363;DHT22;9817;50.80926400;5.16316200;2023-11-19T13:31:06;14.50;99.90
19363;DHT22;9817;50.80926400;5.16316200;2023-11-19T13:33:33;14.60;99.90
19363;DHT22;9817;50.80926400;5.16316200;2023-11-19T13:35:59;14.60;99.90
19363;DHT22;9817;50.80926400;5.16316200;2023-11-19T13:38:31;14.60;99.90
19363;DHT22;9817;50.80926400;5.16316200;2023-11-19T13:40:58;14.50;99.90
19363;DHT22;9817;50.80926400;5.16316200;2023-11-19T13:43:24;14.60;99.90
19363;DHT22;9817;50.80926400;5.16316200;2023-11-19T13:45:50;14.50;99.90
19363;DHT22;9817;50.80926400;5.16316200;2023-11-19T13:48:16;14.50;99.90
19363;DHT22;9817;50.80926400;5.16316200;2023-11-19T13:50:42;14.40;99.90
19363;DHT22;9817;50.80926400;5.16316200;2023-11-19T13:53:08;14.20;99.90
19363;DHT22;9817;50.80926400;5.16316200;2023-11-19T13:55:33;14.30;99.90
19363;DHT22;9817;50.80926400;5.16316200;2023-11-19T13:57:59;14.30;99.90